NEVŞEHİR ÇAT BALON UÇUŞ SAHASI

  • SEKTÖREL METEOROLOJİK DEĞERLENDİRME

  • ÇAT UÇULMAZ

Meteorolojik şartların belirlenen saat aralığında uçuş için uygun olmadığı değerlendirilmiştir.

  • GÜNCELLEME TARİHİ ve SAATİ :

  • 20.05.2022 - 04:17

  • GEÇERLİ TARİH ve SAATLER :

  • 20.05.2022 - 04:20 - 16:50

Büyük Harita İçin Tıklayınız

Sıcaklık
Basınç
Gün Doğum Saati
Gün Batım Saati
Bu bölümde yer alan bildirim meteorolojik veriler doğrultusunda ilgili gün ve zaman aralığında planlanan uçuşlara dair bağlayıcı niteliktedir. Kırmızı ve Sarı bayrak durumlarında kalkış uygunluğu verilmeyecektir. Yeşil bayrak durumunda nihai uçma kararı pilot ve işletme sorumluluğundadır
Kırmızı ve/veya sarı bayrağın ilan edildiği durumlarda yalnızca öğretmen pilot ile beraber yapılacak eğitim uçuşları (çift kumanda) için SHGM yetkilileri ile irtibata geçilerek eğitim uçuşları gerçekleştirilebilecektir.

METAR

LTAZ 200650Z 36009KT 9999 SCT033 10/02 Q1025 RMK RWY29 VRB03KT

TAF

TAF LTAZ 200440Z 2006/2106 VRB02KT 9999 FEW035 BECMG 2011/2013 02012KT BECMG 2015/2018 VRB02KT CAVOK

METAR - TAF bilgileri Aviation Weather Center'dan alınmaktadır.

AIRGRAM

Airgram Meteoroloji Genel Müdürlüğü'nden alınmaktadır.

Meteorolojik veriler sitede bilgilendirme amacıyla yer almaktadır.